Sheikhupura Weather



Sheikhupura's Current Weather

Temprature 12o mist

mist

Rain: 0 %

Min Temprature12o
Max Temprature12o
Humidity81
Wind Speed1.6 m/h
Sun Rise06:54:09
Sun Set17:01:03
Current Time: 12-Dec-2019 01:31:20
Lat/Lon: 31.71, 73.99




Sheikhupura's Geo Location



Sheikhupura's Weather Forecast

Time Overall Temp Min Temp Max Temp Humidity Wind Speed Rain
12-Dec-2019 (Thu)
02:00:00 overcast clouds 12.190 12.190 15.600 30 1.6 m/h 0 %
05:00:00 overcast clouds 11.780 11.780 14.340 32 1.76 m/h 0 %
08:00:00 overcast clouds 13.850 13.850 15.550 31 1.17 m/h 0 %
11:00:00 overcast clouds 16.290 16.290 17.140 41 4.83 m/h 0 %
14:00:00 moderate rain 12.680 12.680 12.680 87 0.83 m/h 338 %
17:00:00 moderate rain 11.810 11.810 11.810 84 4.04 m/h 556 %
20:00:00 light rain 11.470 11.470 11.470 87 3.91 m/h 231 %
23:00:00 moderate rain 11.260 11.260 11.260 91 2.34 m/h 356 %
13-Dec-2019 (Fri)
02:00:00 light rain 11.390 11.390 11.390 91 2.4 m/h 175 %
05:00:00 light rain 11.590 11.590 11.590 92 2.66 m/h 200 %
08:00:00 light rain 11.910 11.910 11.910 90 2.28 m/h 56 %
11:00:00 overcast clouds 14.090 14.090 14.090 75 2.93 m/h 0 %
14:00:00 scattered clouds 16.740 16.740 16.740 57 2.49 m/h 0 %
17:00:00 broken clouds 15.140 15.140 15.140 63 2.45 m/h 0 %
20:00:00 scattered clouds 13.380 13.380 13.380 69 1.45 m/h 0 %
23:00:00 few clouds 12.410 12.410 12.410 73 0.66 m/h 0 %
14-Dec-2019 (Sat)
02:00:00 clear sky 11.560 11.560 11.560 77 1.11 m/h 0 %
05:00:00 clear sky 10.780 10.780 10.780 79 0.54 m/h 0 %
08:00:00 clear sky 11.800 11.800 11.800 77 1.12 m/h 0 %
11:00:00 clear sky 16.390 16.390 16.390 57 1.57 m/h 0 %
14:00:00 clear sky 18.180 18.180 18.180 48 0.27 m/h 0 %
17:00:00 clear sky 15.660 15.660 15.660 56 0.78 m/h 0 %
20:00:00 clear sky 14.200 14.200 14.200 62 1.33 m/h 0 %
23:00:00 few clouds 13.040 13.040 13.040 68 0.75 m/h 0 %
15-Dec-2019 (Sun)
02:00:00 overcast clouds 12.540 12.540 12.540 71 1.1 m/h 0 %
05:00:00 overcast clouds 11.340 11.340 11.340 78 1.72 m/h 0 %
08:00:00 broken clouds 11.760 11.760 11.760 80 1.96 m/h 0 %
11:00:00 scattered clouds 16.270 16.270 16.270 58 2.52 m/h 0 %
14:00:00 clear sky 18.340 18.340 18.340 45 2.3 m/h 0 %
17:00:00 clear sky 15.720 15.720 15.720 53 1.04 m/h 0 %
20:00:00 clear sky 14.160 14.160 14.160 58 0.87 m/h 0 %
23:00:00 clear sky 13.080 13.080 13.080 63 0.06 m/h 0 %
16-Dec-2019 (Mon)
02:00:00 clear sky 12.020 12.020 12.020 67 0.92 m/h 0 %
05:00:00 clear sky 11.220 11.220 11.220 72 1.14 m/h 0 %
08:00:00 clear sky 12.090 12.090 12.090 70 0.9 m/h 0 %
11:00:00 clear sky 17.020 17.020 17.020 48 1.98 m/h 0 %
14:00:00 clear sky 19.140 19.140 19.140 37 2.69 m/h 0 %
17:00:00 clear sky 16.140 16.140 16.140 45 1.82 m/h 0 %
20:00:00 clear sky 14.020 14.020 14.020 50 1.19 m/h 0 %
23:00:00 clear sky 12.840 12.840 12.840 50 1.92 m/h 0 %

Famous Cities (61)